Aviation Digital Data Service (ADDS)

Output produced by METARs form (1338 UTC 19 April 2018)
found at http://aviationweather.gov/adds/metars/
 
KMIV 191127Z 1912/2012 02008G16KT P6SM OVC035 
     FM191500 34010G18KT P6SM OVC035 
     FM191800 31012G20KT P6SM -SHRA OVC025 
     FM192200 31010G18KT P6SM BKN045 
     FM200200 30010KT P6SM SCT045